createdAt,value
2022-08-16T00:02:33.057Z,61.70
2022-08-16T00:05:00.820Z,61.97
2022-08-16T00:07:29.767Z,62.34
2022-08-16T00:09:58.707Z,63.13
2022-08-16T00:12:30.142Z,62.99
2022-08-16T00:15:00.346Z,62.78
2022-08-16T00:17:56.601Z,63.05
2022-08-16T00:20:20.932Z,63.49
2022-08-16T00:22:48.449Z,63.26
2022-08-16T00:25:21.846Z,63.75
2022-08-16T00:28:09.183Z,63.86
2022-08-16T00:30:38.019Z,63.88
2022-08-16T00:33:06.606Z,63.05
2022-08-16T00:35:37.065Z,63.26
2022-08-16T00:38:40.250Z,63.38
2022-08-16T00:40:54.358Z,63.74
2022-08-16T00:43:40.785Z,64.48
2022-08-16T00:46:33.731Z,63.92
2022-08-16T00:49:01.418Z,62.78
2022-08-16T00:51:29.714Z,62.67
2022-08-16T00:53:56.756Z,62.33
2022-08-16T00:56:57.594Z,63.39
2022-08-16T00:59:16.006Z,64.29
2022-08-16T01:01:43.364Z,64.70
2022-08-16T01:04:29.462Z,65.30
2022-08-16T01:07:01.920Z,65.47
2022-08-16T01:09:34.474Z,65.20
2022-08-16T01:12:08.539Z,66.18
2022-08-16T01:14:41.472Z,65.77
2022-08-16T01:17:14.045Z,64.91
2022-08-16T01:19:46.086Z,65.33
2022-08-16T01:22:50.292Z,65.38
2022-08-16T01:25:34.387Z,65.13
2022-08-16T01:28:06.856Z,65.19
2022-08-16T01:30:40.153Z,65.66
2022-08-16T01:33:19.590Z,65.26
2022-08-16T01:35:57.647Z,65.17
2022-08-16T01:38:39.660Z,64.98
2022-08-16T01:41:13.224Z,65.08
2022-08-16T01:43:54.194Z,65.49
2022-08-16T01:46:39.251Z,65.72
2022-08-16T01:49:18.779Z,65.75
2022-08-16T01:51:51.421Z,65.28
2022-08-16T01:54:31.007Z,65.96
2022-08-16T01:56:59.238Z,66.86
2022-08-16T01:59:27.473Z,66.76
2022-08-16T02:02:00.104Z,66.78
2022-08-16T02:04:54.501Z,66.76
2022-08-16T02:07:23.758Z,66.20
2022-08-16T02:09:57.376Z,66.17
2022-08-16T02:12:50.071Z,66.43
2022-08-16T02:15:25.476Z,67.11
2022-08-16T02:17:57.292Z,67.12
2022-08-16T02:20:27.948Z,67.34
2022-08-16T02:22:59.825Z,66.95
2022-08-16T02:25:50.491Z,67.55
2022-08-16T02:28:17.164Z,68.10
2022-08-16T02:30:50.044Z,68.01
2022-08-16T02:33:18.484Z,68.20
2022-08-16T02:35:53.803Z,68.18
2022-08-16T02:38:25.082Z,67.61
2022-08-16T02:40:54.551Z,66.78
2022-08-16T02:43:26.896Z,66.51
2022-08-16T02:45:57.694Z,66.80
2022-08-16T02:48:29.133Z,66.93
2022-08-16T02:51:07.003Z,67.58
2022-08-16T02:53:41.261Z,67.72
2022-08-16T02:56:14.784Z,68.08
2022-08-16T02:58:44.100Z,68.08
2022-08-16T03:01:24.772Z,68.75
2022-08-16T03:04:39.909Z,68.76
2022-08-16T03:06:56.354Z,68.81
2022-08-16T03:09:49.833Z,68.12
2022-08-16T03:12:21.213Z,68.33
2022-08-16T03:14:58.118Z,68.35
2022-08-16T03:17:32.343Z,67.79
2022-08-16T03:20:03.388Z,67.01
2022-08-16T03:22:37.638Z,66.92
2022-08-16T03:25:14.836Z,66.58
2022-08-16T03:27:52.395Z,66.93
2022-08-16T03:30:25.036Z,67.46
2022-08-16T03:32:56.624Z,67.38
2022-08-16T03:35:32.988Z,67.23
2022-08-16T03:38:34.584Z,67.99
2022-08-16T03:40:53.653Z,68.17
2022-08-16T03:43:23.549Z,68.04
2022-08-16T03:46:13.115Z,68.21
2022-08-16T03:49:00.272Z,68.04
2022-08-16T03:51:28.778Z,67.29
2022-08-16T03:54:01.679Z,67.10
2022-08-16T03:56:31.413Z,66.73
2022-08-16T03:59:00.186Z,65.92
2022-08-16T04:01:33.745Z,66.22
2022-08-16T04:04:01.853Z,66.02
2022-08-16T04:06:29.665Z,65.90
2022-08-16T04:08:56.509Z,65.71
2022-08-16T04:11:24.659Z,65.86
2022-08-16T04:14:01.371Z,65.93
2022-08-16T04:16:39.417Z,65.53
2022-08-16T04:19:31.652Z,65.59
2022-08-16T04:22:00.921Z,66.60
2022-08-16T04:24:32.217Z,66.60
2022-08-16T04:26:59.681Z,66.60
2022-08-16T04:29:26.846Z,66.08
2022-08-16T04:32:11.519Z,66.22
2022-08-16T04:34:42.481Z,66.36
2022-08-16T04:37:12.343Z,66.93
2022-08-16T04:39:47.354Z,67.15
2022-08-16T04:42:26.426Z,65.75
2022-08-16T04:44:56.855Z,65.44
2022-08-16T04:47:31.386Z,64.69
2022-08-16T04:50:15.212Z,64.93
2022-08-16T04:52:59.005Z,64.62
2022-08-16T04:55:37.861Z,63.58
2022-08-16T04:58:44.865Z,63.13
2022-08-16T05:00:55.290Z,63.24
2022-08-16T05:03:23.802Z,62.61
2022-08-16T05:05:59.007Z,62.26
2022-08-16T05:08:30.840Z,62.20
2022-08-16T05:11:14.568Z,61.86
2022-08-16T05:13:44.419Z,61.46
2022-08-16T05:16:29.922Z,60.41
2022-08-16T05:19:11.619Z,60.43
2022-08-16T05:21:46.425Z,61.37
2022-08-16T05:24:13.428Z,61.35
2022-08-16T05:26:43.078Z,63.71
2022-08-16T05:29:15.167Z,65.24
2022-08-16T05:31:56.300Z,64.63
2022-08-16T05:34:23.037Z,64.30
2022-08-16T05:36:52.600Z,62.84
2022-08-16T05:39:22.457Z,61.52
2022-08-16T05:41:51.740Z,61.66
2022-08-16T05:44:24.076Z,62.15
2022-08-16T05:46:56.133Z,61.56
2022-08-16T05:49:25.829Z,61.52
2022-08-16T05:52:11.253Z,58.72
2022-08-16T05:54:46.584Z,58.27
2022-08-16T05:57:18.156Z,57.62
2022-08-16T05:59:46.031Z,56.93
2022-08-16T06:02:13.884Z,57.04
2022-08-16T06:04:45.099Z,56.62
2022-08-16T06:07:26.131Z,56.56
2022-08-16T06:10:09.774Z,55.90
2022-08-16T06:12:38.058Z,55.67
2022-08-16T06:15:16.664Z,55.20
2022-08-16T06:17:45.283Z,54.40
2022-08-16T06:20:25.680Z,54.92
2022-08-16T06:23:11.562Z,53.98
2022-08-16T06:25:55.401Z,54.72
2022-08-16T06:28:36.105Z,54.07
2022-08-16T06:31:06.843Z,54.77
2022-08-16T06:33:41.582Z,54.11
2022-08-16T06:36:11.760Z,54.50
2022-08-16T06:38:55.691Z,53.70
2022-08-16T06:41:39.649Z,54.95
2022-08-16T06:44:20.827Z,54.23
2022-08-16T06:46:52.498Z,54.41
2022-08-16T06:49:20.481Z,53.71
2022-08-16T06:51:48.365Z,53.12
2022-08-16T06:54:20.812Z,53.00
2022-08-16T06:56:47.516Z,53.02
2022-08-16T06:59:19.420Z,52.40
2022-08-16T07:01:55.148Z,52.41
2022-08-16T07:04:33.004Z,52.22
2022-08-16T07:07:14.385Z,51.84
2022-08-16T07:09:42.212Z,52.24
2022-08-16T07:12:09.354Z,51.99
2022-08-16T07:14:41.233Z,51.47
2022-08-16T07:17:12.894Z,51.29
2022-08-16T07:20:03.866Z,51.96
2022-08-16T07:22:52.710Z,50.05
2022-08-16T07:25:40.176Z,50.55
2022-08-16T07:28:11.987Z,50.07
2022-08-16T07:30:48.388Z,50.75
2022-08-16T07:33:53.429Z,50.24
2022-08-16T07:36:29.050Z,49.44
2022-08-16T07:38:57.951Z,49.08
2022-08-16T07:41:27.141Z,49.32
2022-08-16T07:43:58.861Z,50.71
2022-08-16T07:46:36.922Z,50.32
2022-08-16T07:49:24.840Z,49.46
2022-08-16T07:51:54.286Z,49.34
2022-08-16T07:54:37.967Z,47.78
2022-08-16T07:57:11.630Z,48.28
2022-08-16T07:59:45.581Z,48.73
2022-08-16T08:02:20.477Z,48.73
2022-08-16T08:04:52.930Z,47.77
2022-08-16T08:07:27.687Z,47.05
2022-08-16T08:09:57.803Z,47.92
2022-08-16T08:12:31.343Z,46.73
2022-08-16T08:15:00.018Z,47.51
2022-08-16T08:17:42.610Z,46.56
2022-08-16T08:20:23.956Z,46.25
2022-08-16T08:23:00.856Z,46.30
2022-08-16T08:25:54.555Z,46.74
2022-08-16T08:28:26.508Z,46.33
2022-08-16T08:31:02.982Z,47.49
2022-08-16T08:33:35.327Z,46.90
2022-08-16T08:36:06.612Z,46.56
2022-08-16T08:38:45.629Z,45.59
2022-08-16T08:41:18.661Z,44.51
2022-08-16T08:43:50.526Z,45.70
2022-08-16T08:46:21.683Z,44.44
2022-08-16T08:48:59.720Z,43.57
2022-08-16T08:51:35.908Z,43.27
2022-08-16T08:54:09.348Z,43.57
2022-08-16T08:56:45.410Z,43.98
2022-08-16T08:59:34.178Z,41.80
2022-08-16T09:02:09.959Z,42.18
2022-08-16T09:04:47.481Z,41.10
2022-08-16T09:07:18.223Z,40.60
2022-08-16T09:09:46.769Z,41.49
2022-08-16T09:12:35.582Z,39.69
2022-08-16T09:15:08.214Z,39.74
2022-08-16T09:17:48.995Z,40.94
2022-08-16T09:20:19.981Z,39.43
2022-08-16T09:22:51.262Z,40.08
2022-08-16T09:25:26.254Z,39.31
2022-08-16T09:28:02.823Z,38.77
2022-08-16T09:30:44.308Z,37.11
2022-08-16T09:33:14.273Z,37.48
2022-08-16T09:35:42.354Z,38.09
2022-08-16T09:38:11.997Z,37.23
2022-08-16T09:40:43.163Z,37.28
2022-08-16T09:43:37.740Z,36.84
2022-08-16T09:45:59.947Z,38.19
2022-08-16T09:48:37.124Z,38.91
2022-08-16T09:51:12.926Z,37.68
2022-08-16T09:53:39.880Z,34.96
2022-08-16T09:56:26.714Z,35.11
2022-08-16T09:59:05.341Z,33.86
2022-08-16T10:01:36.572Z,34.17
2022-08-16T10:04:04.542Z,34.58
2022-08-16T10:06:33.421Z,34.98
2022-08-16T10:09:10.746Z,35.08
2022-08-16T10:11:50.536Z,35.34
2022-08-16T10:14:19.701Z,33.82
2022-08-16T10:16:48.971Z,33.69
2022-08-16T10:19:19.411Z,33.71
2022-08-16T10:21:56.675Z,33.66
2022-08-16T10:24:28.041Z,33.18
2022-08-16T10:27:18.381Z,34.36
2022-08-16T10:29:59.153Z,34.40
2022-08-16T10:32:30.506Z,35.24
2022-08-16T10:34:59.586Z,33.93
2022-08-16T10:37:32.456Z,33.38
2022-08-16T10:40:28.641Z,34.43
2022-08-16T10:42:58.466Z,34.77
2022-08-16T10:45:25.359Z,33.83
2022-08-16T10:48:03.500Z,33.78
2022-08-16T10:50:32.489Z,33.35
2022-08-16T10:53:00.200Z,34.66
2022-08-16T10:55:44.195Z,34.35
2022-08-16T10:58:16.718Z,34.23
2022-08-16T11:00:46.239Z,35.12
2022-08-16T11:06:03.433Z,33.67
2022-08-16T11:08:41.924Z,34.70
2022-08-16T11:11:19.185Z,34.91
2022-08-16T11:14:10.953Z,34.12
2022-08-16T11:19:22.593Z,34.46
2022-08-16T11:24:42.627Z,33.50
2022-08-16T11:27:20.074Z,34.13
2022-08-16T11:29:53.347Z,33.30
2022-08-16T11:32:29.703Z,35.75
2022-08-16T11:35:10.422Z,34.10
2022-08-16T11:40:32.678Z,33.89
2022-08-16T11:43:01.599Z,34.78
2022-08-16T11:45:33.595Z,35.52
2022-08-16T11:48:03.066Z,35.52
2022-08-16T11:50:29.924Z,36.17
2022-08-16T11:52:56.499Z,35.92
2022-08-16T11:55:23.514Z,35.74
2022-08-16T11:57:51.573Z,35.80
2022-08-16T12:00:33.891Z,36.43
2022-08-16T12:03:12.636Z,36.66
2022-08-16T12:05:42.662Z,36.37
2022-08-16T12:08:10.276Z,35.96
2022-08-16T12:10:40.455Z,36.70
2022-08-16T12:13:10.951Z,36.87
2022-08-16T12:15:38.627Z,36.91
2022-08-16T12:18:06.888Z,36.31
2022-08-16T12:20:37.227Z,36.07
2022-08-16T12:23:04.925Z,37.07
2022-08-16T12:25:33.720Z,36.32
2022-08-16T12:28:03.032Z,37.05
2022-08-16T12:30:38.611Z,36.69
2022-08-16T12:33:09.918Z,36.25
2022-08-16T12:35:39.433Z,36.55
2022-08-16T12:38:35.406Z,37.07
2022-08-16T12:40:55.625Z,35.87
2022-08-16T12:43:24.199Z,37.26
2022-08-16T12:45:54.064Z,34.67
2022-08-16T12:48:35.010Z,35.05
2022-08-16T12:51:13.581Z,35.38
2022-08-16T12:53:47.933Z,34.68
2022-08-16T12:56:16.891Z,35.66
2022-08-16T12:58:50.326Z,34.95
2022-08-16T13:01:22.581Z,33.50
2022-08-16T13:03:59.299Z,32.52
2022-08-16T13:06:36.916Z,34.44
2022-08-16T13:09:06.231Z,33.75
2022-08-16T13:11:38.455Z,32.34
2022-08-16T13:14:08.241Z,33.05
2022-08-16T13:16:47.319Z,32.10
2022-08-16T13:19:15.859Z,33.05
2022-08-16T13:21:42.525Z,33.45
2022-08-16T13:24:09.165Z,33.25
2022-08-16T13:26:35.783Z,32.81
2022-08-16T13:29:04.084Z,32.56
2022-08-16T13:31:32.499Z,32.39
2022-08-16T13:34:00.134Z,33.80
2022-08-16T13:39:14.719Z,34.14
2022-08-16T13:41:41.399Z,32.95
2022-08-16T13:44:09.501Z,33.11
2022-08-16T13:46:36.498Z,33.16
2022-08-16T13:49:03.454Z,32.63
2022-08-16T13:51:30.929Z,33.56
2022-08-16T13:54:03.238Z,31.76
2022-08-16T13:56:38.047Z,31.14
2022-08-16T13:59:14.422Z,33.04
2022-08-16T14:01:55.725Z,31.14
2022-08-16T14:04:28.900Z,31.83
2022-08-16T14:06:57.594Z,33.35
2022-08-16T14:09:27.205Z,33.31
2022-08-16T14:11:56.455Z,32.07
2022-08-16T14:14:28.776Z,31.90
2022-08-16T14:17:01.025Z,32.27
2022-08-16T14:19:29.382Z,33.45
2022-08-16T14:22:13.498Z,32.96
2022-08-16T14:24:40.736Z,32.71
2022-08-16T14:27:12.408Z,31.89
2022-08-16T14:29:39.635Z,33.54
2022-08-16T14:32:09.345Z,32.64
2022-08-16T14:34:40.714Z,32.66
2022-08-16T14:37:08.963Z,32.39
2022-08-16T14:39:36.894Z,32.90
2022-08-16T14:42:13.443Z,32.42
2022-08-16T14:44:41.462Z,30.88
2022-08-16T14:47:10.520Z,30.54
2022-08-16T14:49:40.525Z,31.55
2022-08-16T14:52:11.398Z,30.49
2022-08-16T14:54:40.366Z,29.91
2022-08-16T14:57:07.073Z,32.75
2022-08-16T14:59:34.661Z,30.15
2022-08-16T15:02:14.416Z,31.99
2022-08-16T15:05:01.229Z,29.85
2022-08-16T15:07:35.045Z,30.68
2022-08-16T15:10:03.560Z,30.46
2022-08-16T15:12:33.880Z,31.27
2022-08-16T15:15:04.588Z,29.57
2022-08-16T15:17:41.463Z,30.30
2022-08-16T15:20:09.375Z,30.38
2022-08-16T15:22:43.247Z,31.02
2022-08-16T15:25:17.176Z,30.78
2022-08-16T15:27:45.034Z,29.85
2022-08-16T15:30:58.227Z,29.47
2022-08-16T15:33:07.320Z,29.97
2022-08-16T15:35:36.304Z,28.72
2022-08-16T15:38:08.961Z,30.62
2022-08-16T15:40:37.045Z,27.81
2022-08-16T15:43:23.723Z,29.39
2022-08-16T15:46:00.859Z,30.54
2022-08-16T15:48:30.509Z,28.46
2022-08-16T15:50:58.998Z,29.80
2022-08-16T15:53:26.422Z,29.87
2022-08-16T15:55:53.342Z,29.50
2022-08-16T15:58:35.681Z,28.78
2022-08-16T16:01:06.082Z,30.58
2022-08-16T16:03:34.536Z,30.61
2022-08-16T16:06:01.665Z,30.54
2022-08-16T16:08:28.647Z,30.94
2022-08-16T16:11:01.239Z,30.66
2022-08-16T16:13:30.496Z,29.63
2022-08-16T16:16:00.310Z,31.02
2022-08-16T16:18:27.119Z,31.80
2022-08-16T16:21:05.253Z,30.54
2022-08-16T16:23:36.517Z,29.65
2022-08-16T16:26:14.768Z,31.25
2022-08-16T16:28:51.112Z,30.00
2022-08-16T16:31:36.006Z,30.93
2022-08-16T16:34:03.298Z,30.91
2022-08-16T16:36:32.213Z,32.50
2022-08-16T16:39:09.350Z,32.66
2022-08-16T16:41:36.914Z,32.76
2022-08-16T16:44:04.242Z,32.22
2022-08-16T16:46:41.341Z,32.09
2022-08-16T16:49:12.653Z,31.93
2022-08-16T16:51:44.619Z,31.63
2022-08-16T16:54:14.006Z,31.32
2022-08-16T16:56:55.177Z,31.17
2022-08-16T16:59:21.718Z,31.68
2022-08-16T17:01:59.940Z,31.94
2022-08-16T17:04:37.092Z,31.23
2022-08-16T17:07:04.317Z,31.24
2022-08-16T17:09:39.391Z,31.86
2022-08-16T17:12:08.149Z,31.68
2022-08-16T17:14:38.429Z,32.80
2022-08-16T17:17:08.681Z,32.67
2022-08-16T17:19:41.179Z,32.34
2022-08-16T17:22:15.432Z,31.68
2022-08-16T17:24:50.328Z,30.30
2022-08-16T17:27:18.402Z,33.95
2022-08-16T17:30:02.222Z,35.05
2022-08-16T17:32:46.575Z,35.15
2022-08-16T17:35:18.472Z,36.00
2022-08-16T17:37:50.948Z,37.10
2022-08-16T17:40:45.752Z,37.72
2022-08-16T17:43:44.427Z,38.45
2022-08-16T17:46:41.501Z,39.04
2022-08-16T17:49:05.168Z,39.33
2022-08-16T17:51:31.902Z,39.73
2022-08-16T17:53:58.658Z,40.14
2022-08-16T17:56:25.378Z,40.19
2022-08-16T17:58:52.129Z,39.36
2022-08-16T18:01:25.379Z,39.08
2022-08-16T18:04:06.833Z,39.07
2022-08-16T18:06:36.515Z,38.74
2022-08-16T18:09:04.139Z,38.38
2022-08-16T18:11:32.930Z,39.07
2022-08-16T18:13:59.761Z,39.90
2022-08-16T18:16:26.459Z,40.74
2022-08-16T18:18:53.064Z,41.49
2022-08-16T18:21:21.525Z,41.47
2022-08-16T18:23:48.294Z,42.07
2022-08-16T18:26:14.944Z,42.18
2022-08-16T18:28:41.534Z,42.24
2022-08-16T18:31:08.576Z,42.48
2022-08-16T18:33:37.612Z,42.66
2022-08-16T18:36:20.437Z,42.16
2022-08-16T18:38:49.393Z,42.37
2022-08-16T18:41:16.630Z,42.67
2022-08-16T18:44:23.199Z,42.82
2022-08-16T18:46:30.450Z,42.96
2022-08-16T18:48:57.032Z,43.63
2022-08-16T18:51:25.407Z,43.85
2022-08-16T18:53:53.217Z,43.87
2022-08-16T18:56:20.032Z,44.01
2022-08-16T18:58:46.740Z,43.98
2022-08-16T19:01:13.673Z,43.80
2022-08-16T19:03:40.361Z,43.53
2022-08-16T19:06:11.462Z,43.48
2022-08-16T19:08:43.663Z,43.22
2022-08-16T19:11:17.506Z,43.48
2022-08-16T19:13:44.843Z,44.02
2022-08-16T19:16:12.720Z,43.81
2022-08-16T19:18:39.394Z,44.57
2022-08-16T19:21:07.919Z,44.43
2022-08-16T19:23:37.293Z,44.85
2022-08-16T19:26:24.636Z,45.21
2022-08-16T19:28:58.746Z,45.50
2022-08-16T19:31:30.299Z,45.71
2022-08-16T19:33:57.655Z,46.07
2022-08-16T19:36:30.897Z,46.50
2022-08-16T19:39:04.190Z,47.44
2022-08-16T19:41:31.792Z,47.46
2022-08-16T19:43:58.401Z,47.61
2022-08-16T19:46:25.130Z,47.50
2022-08-16T19:48:51.687Z,47.75
2022-08-16T19:51:18.303Z,47.81
2022-08-16T19:53:44.975Z,47.85
2022-08-16T19:56:11.594Z,48.22
2022-08-16T19:58:44.182Z,48.54
2022-08-16T20:01:23.134Z,48.46
2022-08-16T20:03:49.781Z,48.45
2022-08-16T20:06:37.822Z,48.35
2022-08-16T20:09:03.741Z,48.54
2022-08-16T20:11:30.329Z,48.68
2022-08-16T20:13:57.148Z,49.36
2022-08-16T20:16:24.158Z,49.25
2022-08-16T20:18:50.773Z,49.51
2022-08-16T20:21:17.407Z,49.55
2022-08-16T20:23:44.080Z,49.70
2022-08-16T20:26:10.642Z,49.08
2022-08-16T20:28:52.030Z,49.25
2022-08-16T20:31:22.226Z,49.84
2022-08-16T20:33:49.333Z,50.20
2022-08-16T20:36:16.658Z,50.36
2022-08-16T20:38:44.845Z,49.97
2022-08-16T20:41:12.112Z,49.52
2022-08-16T20:43:38.680Z,49.61
2022-08-16T20:46:05.458Z,50.24
2022-08-16T20:48:32.018Z,50.35
2022-08-16T20:50:58.667Z,49.59
2022-08-16T20:53:25.271Z,49.58
2022-08-16T20:55:52.071Z,49.89
2022-08-16T20:58:24.498Z,50.43
2022-08-16T21:00:51.276Z,50.78
2022-08-16T21:03:17.913Z,50.54
2022-08-16T21:05:44.809Z,50.80
2022-08-16T21:08:50.930Z,50.73
2022-08-16T21:11:00.518Z,50.95
2022-08-16T21:13:27.115Z,51.09
2022-08-16T21:15:53.823Z,51.20
2022-08-16T21:18:20.383Z,51.28
2022-08-16T21:20:47.124Z,51.26
2022-08-16T21:23:13.737Z,50.75
2022-08-16T21:25:51.217Z,50.89
2022-08-16T21:28:38.753Z,50.99
2022-08-16T21:31:13.453Z,50.76
2022-08-16T21:33:40.555Z,50.96
2022-08-16T21:36:07.472Z,51.24
2022-08-16T21:38:34.160Z,51.55
2022-08-16T21:41:02.842Z,52.08
2022-08-16T21:43:30.252Z,51.80
2022-08-16T21:45:56.965Z,51.78
2022-08-16T21:48:32.680Z,51.50
2022-08-16T21:51:11.543Z,51.46
2022-08-16T21:53:38.642Z,51.78
2022-08-16T21:56:06.118Z,52.19
2022-08-16T21:58:33.044Z,51.97
2022-08-16T22:01:00.659Z,52.07
2022-08-16T22:03:27.973Z,52.35
2022-08-16T22:06:13.485Z,52.37
2022-08-16T22:08:50.427Z,52.78
2022-08-16T22:11:19.698Z,53.04
2022-08-16T22:13:51.508Z,53.62
2022-08-16T22:16:28.994Z,53.92
2022-08-16T22:18:55.804Z,53.61
2022-08-16T22:21:22.999Z,53.03
2022-08-16T22:23:57.168Z,53.26
2022-08-16T22:26:30.131Z,53.36
2022-08-16T22:29:03.534Z,53.68
2022-08-16T22:31:30.331Z,54.03
2022-08-16T22:33:57.482Z,54.36
2022-08-16T22:36:28.859Z,54.42
2022-08-16T22:39:01.194Z,54.99
2022-08-16T22:41:30.119Z,54.85
2022-08-16T22:43:57.192Z,55.07
2022-08-16T22:46:24.438Z,55.07
2022-08-16T22:48:55.696Z,55.48
2022-08-16T22:51:26.007Z,55.92
2022-08-16T22:53:58.612Z,55.87
2022-08-16T22:56:28.296Z,56.32
2022-08-16T22:58:55.728Z,56.32
2022-08-16T23:01:25.894Z,55.79
2022-08-16T23:03:54.199Z,55.56
2022-08-16T23:06:22.611Z,55.36
2022-08-16T23:08:50.536Z,55.18
2022-08-16T23:11:25.711Z,55.14
2022-08-16T23:13:56.758Z,54.99
2022-08-16T23:16:32.571Z,55.15
2022-08-16T23:19:03.148Z,56.01
2022-08-16T23:21:31.907Z,56.27
2022-08-16T23:23:59.194Z,56.20
2022-08-16T23:26:36.326Z,56.10
2022-08-16T23:29:15.878Z,55.80
2022-08-16T23:31:54.915Z,56.35
2022-08-16T23:34:22.301Z,56.27
2022-08-16T23:36:49.584Z,56.62
2022-08-16T23:39:19.868Z,56.62
2022-08-16T23:41:46.933Z,56.48
2022-08-16T23:44:57.718Z,56.63
2022-08-16T23:47:00.321Z,57.25
2022-08-16T23:50:00.527Z,57.05
2022-08-16T23:52:13.692Z,57.30
2022-08-16T23:54:42.139Z,58.01
2022-08-16T23:57:08.849Z,58.02
2022-08-16T23:59:43.718Z,57.37
